Time;durP1;ratioP1;P1;durP2;ratioP2;P2;SDS_P1;SDS_P2;PMS_P1;PMS_P2;Temp;Humidity;BMP_temperature;BMP_pressure;BME280_temperature;BME280_humidity;BME280_pressure;Samples;Min_cycle;Max_cycle;Signal;HPM_P1;HPM_P2
2021/12/25 00:01:46;;;;;;;0.60;0.60;;;;;;;-0.09;76.97;100609.06;5088452;28;20815;-76
2021/12/25 00:04:14;;;;;;;0.60;0.60;;;;;;;-0.12;76.43;100619.22;5090369;28;20308;-77
2021/12/25 00:06:41;;;;;;;1.67;0.90;;;;;;;-0.10;76.84;100620.13;5090271;28;20265;-77
2021/12/25 00:09:07;;;;;;;0.70;0.60;;;;;;;-0.09;76.49;100609.06;5091317;28;20276;-77
2021/12/25 00:11:34;;;;;;;0.50;0.50;;;;;;;-0.08;76.38;100629.63;5091487;28;20203;-77
2021/12/25 00:14:01;;;;;;;0.83;0.60;;;;;;;-0.17;76.91;100615.69;5094555;28;20655;-77
2021/12/25 00:16:27;;;;;;;1.13;0.70;;;;;;;-0.14;76.59;100626.00;5095760;28;20208;-77
2021/12/25 00:18:53;;;;;;;2.30;0.70;;;;;;;-0.14;77.15;100615.75;5096900;28;20207;-77
2021/12/25 00:21:21;;;;;;;2.07;0.90;;;;;;;-0.12;77.51;100611.53;5095470;28;20348;-76
2021/12/25 00:23:49;;;;;;;1.60;1.00;;;;;;;-0.12;77.98;100596.13;5094811;28;20228;-77
2021/12/25 00:26:35;;;;;;;2.03;1.07;;;;;;;-0.10;77.70;100608.19;5095452;28;20208;-77
2021/12/25 00:29:15;;;;;;;1.30;1.00;;;;;;;-0.07;77.74;100597.13;5095304;28;20202;-77
2021/12/25 00:31:51;;;;;;;1.90;1.20;;;;;;;-0.07;77.47;100610.81;5095145;28;20185;-77
2021/12/25 00:34:17;;;;;;;1.40;1.30;;;;;;;-0.06;77.79;100610.00;5095122;28;20227;-77
2021/12/25 00:36:45;;;;;;;1.27;0.93;;;;;;;-0.04;78.07;100604.91;5095301;28;20592;-77
2021/12/25 00:39:13;;;;;;;2.13;0.90;;;;;;;-0.02;78.20;100595.53;5095255;28;20635;-77
2021/12/25 00:41:40;;;;;;;3.47;1.10;;;;;;;-0.03;78.79;100604.94;5095107;28;20228;-77
2021/12/25 00:44:06;;;;;;;2.63;1.30;;;;;;;-0.02;79.32;100591.31;5094817;28;20609;-76
2021/12/25 00:46:32;;;;;;;1.20;1.10;;;;;;;0.01;78.45;100584.50;5094965;28;20768;-77
2021/12/25 00:48:59;;;;;;;1.23;1.13;;;;;;;0.00;78.71;100601.63;5094900;28;21043;-77
2021/12/25 00:51:25;;;;;;;3.07;1.07;;;;;;;-0.11;78.73;100603.88;5094912;28;20208;-77
2021/12/25 00:53:53;;;;;;;1.70;1.10;;;;;;;-0.06;78.45;100598.84;5094469;28;20289;-77
2021/12/25 00:56:19;;;;;;;1.20;1.00;;;;;;;-0.08;78.36;100615.91;5095188;28;20207;-77
2021/12/25 00:58:45;;;;;;;1.80;1.00;;;;;;;-0.10;78.59;100622.69;5094885;28;20269;-77
2021/12/25 01:01:12;;;;;;;1.37;1.03;;;;;;;-0.09;77.02;100645.84;5094421;28;20220;-77
2021/12/25 01:03:38;;;;;;;1.33;0.50;;;;;;;-0.11;75.06;100695.38;5094476;28;20282;-77
2021/12/25 01:06:05;;;;;;;0.90;0.80;;;;;;;-0.11;73.03;100757.81;5094893;28;20578;-76
2021/12/25 01:08:31;;;;;;;1.03;0.60;;;;;;;-0.13;72.76;100774.88;5094667;28;20587;-77
2021/12/25 01:10:59;;;;;;;0.50;0.40;;;;;;;-0.15;72.49;100797.03;5094934;28;20204;-77
2021/12/25 01:13:29;;;;;;;0.90;0.60;;;;;;;-0.19;72.87;100797.78;5094651;28;20227;-77
2021/12/25 01:16:10;;;;;;;1.27;0.70;;;;;;;-0.24;73.28;100784.81;5094603;28;20209;-76
2021/12/25 01:19:03;;;;;;;2.57;0.97;;;;;;;-0.27;74.26;100771.03;5094561;28;20203;-77
2021/12/25 01:21:48;;;;;;;0.70;0.40;;;;;;;-0.29;73.55;100783.78;5094552;28;20217;-76
2021/12/25 01:27:14;;;;;;;1.73;0.40;;;;;;;-0.30;70.97;100840.16;5094707;28;20244;-76
2021/12/25 01:29:46;;;;;;;0.63;0.30;;;;;;;-0.45;70.83;100849.13;5094244;28;20208;-76
2021/12/25 01:35:16;;;;;;;0.50;0.30;;;;;;;-0.47;71.93;100860.16;5086711;28;20294;-76
2021/12/25 01:37:45;;;;;;;0.77;0.43;;;;;;;-0.50;71.13;100848.09;5094040;28;20672;-76
2021/12/25 01:40:31;;;;;;;0.40;0.30;;;;;;;-0.54;70.54;100856.50;5094207;28;20281;-76
2021/12/25 01:48:38;;;;;;;0.93;0.50;;;;;;;-0.62;72.08;100863.06;5068795;28;20565;-76
2021/12/25 01:51:05;;;;;;;0.50;0.43;;;;;;;-0.61;72.11;100847.75;5093895;28;20606;-76
2021/12/25 01:53:32;;;;;;;0.80;0.50;;;;;;;-0.66;72.09;100849.28;5093693;28;20228;-76
2021/12/25 01:55:59;;;;;;;0.33;0.27;;;;;;;-0.70;72.72;100836.31;5094026;28;20203;-76
2021/12/25 01:58:27;;;;;;;0.30;0.30;;;;;;;-0.69;72.05;100838.06;5093690;28;20201;-76
2021/12/25 02:00:56;;;;;;;0.50;0.40;;;;;;;-0.68;71.72;100858.59;5093289;28;20709;-76
2021/12/25 02:03:25;;;;;;;3.67;0.50;;;;;;;-0.74;72.49;100843.03;5093335;28;20242;-76
2021/12/25 02:05:51;;;;;;;1.20;0.57;;;;;;;-0.73;72.74;100837.09;5093505;28;20212;-77
2021/12/25 02:08:19;;;;;;;0.60;0.40;;;;;;;-0.74;72.83;100834.47;5093681;28;20211;-76
2021/12/25 02:10:46;;;;;;;0.80;0.40;;;;;;;-0.72;72.50;100838.81;5093505;28;20204;-77
2021/12/25 02:13:13;;;;;;;1.20;0.40;;;;;;;-0.73;72.28;100843.88;5093146;28;20224;-76
2021/12/25 02:15:45;;;;;;;1.03;0.57;;;;;;;-0.79;69.04;100918.91;5093888;28;20227;-76
2021/12/25 02:18:15;;;;;;;2.43;0.80;;;;;;;-0.81;68.66;100953.88;5093782;28;20196;-76
2021/12/25 02:20:50;;;;;;;0.50;0.30;;;;;;;-0.90;68.34;100976.59;5093155;28;20682;-76
2021/12/25 02:23:21;;;;;;;0.40;0.20;;;;;;;-0.94;66.92;101001.22;5093255;28;20234;-77
2021/12/25 02:25:49;;;;;;;0.20;0.20;;;;;;;-0.98;65.76;101042.06;5093856;28;20196;-77
2021/12/25 02:28:17;;;;;;;2.07;0.30;;;;;;;-0.97;66.51;101031.88;5093404;28;20579;-76
2021/12/25 02:30:46;;;;;;;0.43;0.30;;;;;;;-0.97;65.62;101041.22;5093267;28;20265;-76
2021/12/25 02:33:13;;;;;;;0.60;0.30;;;;;;;-1.02;65.57;101062.44;5093110;28;20219;-77
2021/12/25 02:35:39;;;;;;;0.53;0.37;;;;;;;-1.03;65.99;101034.19;5093328;28;20219;-77
2021/12/25 02:38:07;;;;;;;0.47;0.27;;;;;;;-1.05;65.74;101046.06;5093423;28;20254;-76
2021/12/25 02:40:34;;;;;;;0.33;0.30;;;;;;;-1.13;65.64;101048.34;5093068;28;20772;-76
2021/12/25 02:43:01;;;;;;;0.50;0.30;;;;;;;-1.11;66.52;101030.47;5092592;28;20224;-77
2021/12/25 02:45:28;;;;;;;0.30;0.30;;;;;;;-1.11;66.10;101025.34;5093533;28;20203;-77
2021/12/25 02:47:55;;;;;;;1.27;0.37;;;;;;;-1.13;65.38;101040.66;5093465;28;20211;-78
2021/12/25 02:50:23;;;;;;;0.73;0.30;;;;;;;-1.17;66.57;101019.97;5092980;28;20702;-77
2021/12/25 02:52:50;;;;;;;1.93;0.53;;;;;;;-1.21;66.23;101022.44;5092659;28;20219;-76
2021/12/25 02:55:18;;;;;;;0.40;0.40;;;;;;;-1.23;65.64;101026.63;5092807;28;20207;-76
2021/12/25 02:57:49;;;;;;;0.60;0.50;;;;;;;-1.27;66.16;101029.00;5092643;28;20257;-76
2021/12/25 03:00:16;;;;;;;0.83;0.30;;;;;;;-1.31;66.11;101042.50;5092458;28;20620;-76
2021/12/25 03:02:43;;;;;;;0.47;0.40;;;;;;;-1.31;66.54;101030.59;5091995;28;20231;-76
2021/12/25 03:05:09;;;;;;;0.53;0.20;;;;;;;-1.31;67.06;101024.56;5092439;28;20243;-76
2021/12/25 03:07:36;;;;;;;0.53;0.30;;;;;;;-1.32;66.53;101026.28;5092504;28;20204;-76
2021/12/25 03:10:04;;;;;;;1.67;0.40;;;;;;;-1.39;66.69;101026.84;5100331;28;20220;-76
2021/12/25 03:12:36;;;;;;;1.37;0.40;;;;;;;-1.39;66.66;101026.84;5102232;28;20532;-76
2021/12/25 03:15:07;;;;;;;1.10;0.30;;;;;;;-1.37;66.86;101022.66;5100117;28;20249;-76
2021/12/25 03:17:35;;;;;;;0.53;0.30;;;;;;;-1.36;67.28;101003.06;5100776;28;20213;-76
2021/12/25 03:20:02;;;;;;;0.23;0.20;;;;;;;-1.38;67.33;101005.56;5102323;28;20699;-77
2021/12/25 03:22:28;;;;;;;1.13;0.23;;;;;;;-1.42;67.07;101001.13;5102372;28;20260;-77
2021/12/25 03:24:55;;;;;;;0.40;0.40;;;;;;;-1.45;67.20;101001.91;5101160;28;20282;-77
2021/12/25 03:27:21;;;;;;;1.67;0.30;;;;;;;-1.55;67.17;100999.75;5102734;28;20255;-77
2021/12/25 03:29:49;;;;;;;0.27;0.27;;;;;;;-1.54;67.26;101011.75;5099752;28;20214;-77
2021/12/25 03:32:16;;;;;;;0.53;0.30;;;;;;;-1.54;67.52;100996.41;5099945;28;20295;-76
2021/12/25 03:34:43;;;;;;;1.03;0.47;;;;;;;-1.56;67.15;101015.09;5101657;28;20237;-77
2021/12/25 03:37:09;;;;;;;1.23;0.37;;;;;;;-1.53;67.24;101015.19;5101625;28;20194;-76
2021/12/25 03:39:35;;;;;;;0.40;0.30;;;;;;;-1.53;67.15;101015.19;5102588;28;20625;-76
2021/12/25 03:42:02;;;;;;;1.37;0.40;;;;;;;-1.65;67.21;101023.25;5101469;28;20216;-77
2021/12/25 03:44:31;;;;;;;0.87;0.50;;;;;;;-1.62;67.09;101029.38;5100778;28;20219;-76
2021/12/25 03:47:09;;;;;;;0.53;0.30;;;;;;;-1.63;67.58;101024.19;5100543;28;20570;-76
2021/12/25 03:53:07;;;;;;;1.33;0.30;;;;;;;-1.64;67.08;101020.75;5100548;28;20195;-77
2021/12/25 03:57:55;;;;;;;1.70;0.40;;;;;;;-1.75;67.64;101018.59;5099024;28;20629;-77
2021/12/25 04:00:28;;;;;;;0.80;0.40;;;;;;;-1.73;67.13;101037.44;5101992;28;20352;-77
2021/12/25 04:03:01;;;;;;;0.40;0.40;;;;;;;-1.70;67.76;101011.97;5102317;28;20609;-77
2021/12/25 04:05:31;;;;;;;1.07;0.30;;;;;;;-1.74;67.91;100990.50;5097854;28;20200;-77
2021/12/25 04:08:04;;;;;;;0.20;0.10;;;;;;;-1.75;68.57;100990.44;5100907;28;20696;-77
2021/12/25 04:10:35;;;;;;;0.20;0.20;;;;;;;-1.74;68.98;100981.97;5101594;28;20194;-77
2021/12/25 04:13:03;;;;;;;1.93;0.40;;;;;;;-1.70;67.34;101010.28;5111306;28;20223;-77
2021/12/25 04:15:30;;;;;;;1.13;0.30;;;;;;;-1.73;67.55;101014.41;5111852;28;20633;-77
2021/12/25 04:17:58;;;;;;;0.87;0.50;;;;;;;-1.77;67.47;101017.66;5112008;28;20232;-77
2021/12/25 04:20:24;;;;;;;0.87;0.60;;;;;;;-1.79;68.03;101032.94;5111629;28;20217;-77
2021/12/25 04:22:56;;;;;;;0.30;0.30;;;;;;;-1.76;67.50;101037.28;5111589;28;20598;-77
2021/12/25 04:25:27;;;;;;;0.67;0.30;;;;;;;-1.73;67.72;101024.63;5111640;28;20252;-77
2021/12/25 04:27:54;;;;;;;1.50;0.30;;;;;;;-1.77;68.33;101008.28;5112033;28;20242;-77
2021/12/25 04:30:30;;;;;;;1.50;0.33;;;;;;;-1.75;68.08;101011.78;5097069;28;20207;-77
2021/12/25 04:33:28;;;;;;;0.63;0.30;;;;;;;-1.76;68.02;101002.38;5091009;28;20256;-77
2021/12/25 05:03:48;;;;;;;0.43;0.43;;;;;;;-2.19;67.95;101008.28;5052793;28;20256;-77
2021/12/25 05:06:16;;;;;;;1.60;0.40;;;;;;;-2.22;68.46;101006.47;5087182;28;20207;-77
2021/12/25 05:08:42;;;;;;;0.60;0.57;;;;;;;-2.22;68.50;100997.91;5096094;28;20243;-77
2021/12/25 05:11:09;;;;;;;1.53;0.80;;;;;;;-2.24;68.86;100994.41;5095872;28;20265;-77
2021/12/25 05:13:35;;;;;;;1.23;0.50;;;;;;;-2.29;68.78;100993.38;5095557;28;20579;-76
2021/12/25 05:16:03;;;;;;;0.43;0.30;;;;;;;-2.34;68.81;100999.94;5095922;28;20256;-77
2021/12/25 05:18:30;;;;;;;0.60;0.40;;;;;;;-2.31;69.06;100995.84;5096132;28;20207;-77
2021/12/25 05:20:56;;;;;;;0.40;0.40;;;;;;;-2.37;69.13;100982.81;5096083;28;20303;-77
2021/12/25 05:23:24;;;;;;;0.67;0.40;;;;;;;-2.38;69.17;100980.19;5095254;28;20717;-77
2021/12/25 05:25:50;;;;;;;0.80;0.80;;;;;;;-2.38;69.58;100980.19;5095978;28;20204;-77
2021/12/25 05:28:23;;;;;;;2.33;2.13;;;;;;;-2.44;69.87;100968.91;5096052;28;20218;-77
2021/12/25 05:30:50;;;;;;;3.00;2.80;;;;;;;-2.49;70.01;100962.72;5095578;28;20293;-77
2021/12/25 05:33:17;;;;;;;1.70;1.60;;;;;;;-2.44;69.63;100976.56;5095661;28;20297;-77
2021/12/25 05:35:43;;;;;;;3.50;3.03;;;;;;;-2.46;69.36;100995.19;5095860;28;20203;-77
2021/12/25 05:38:14;;;;;;;1.33;0.70;;;;;;;-2.49;69.32;100987.41;5095619;28;20207;-77
2021/12/25 05:40:42;;;;;;;3.53;0.57;;;;;;;-2.52;70.39;100962.56;5096367;28;20203;-78
2021/12/25 05:43:08;;;;;;;0.67;0.40;;;;;;;-2.53;69.70;100977.88;5095819;28;20228;-78
2021/12/25 05:45:35;;;;;;;1.27;0.43;;;;;;;-2.55;69.60;100979.47;5096221;28;20565;-78
2021/12/25 05:48:01;;;;;;;0.47;0.43;;;;;;;-2.58;69.93;100990.44;5095829;28;20207;-78
2021/12/25 05:50:28;;;;;;;0.60;0.40;;;;;;;-2.58;69.94;100992.13;5095902;28;20199;-78
2021/12/25 05:52:55;;;;;;;0.73;0.47;;;;;;;-2.67;70.55;100988.38;5095885;28;20220;-78
2021/12/25 05:55:22;;;;;;;2.87;0.70;;;;;;;-2.69;70.50;100971.22;5097453;28;20208;-78
2021/12/25 05:57:50;;;;;;;1.13;0.50;;;;;;;-2.67;70.31;100978.16;5096450;28;20264;-77
2021/12/25 06:00:16;;;;;;;0.50;0.50;;;;;;;-2.64;69.95;100991.03;5090765;28;20261;-78
2021/12/25 06:02:43;;;;;;;1.33;0.77;;;;;;;-2.68;69.99;100978.06;5095214;28;20283;-78
2021/12/25 06:05:10;;;;;;;1.60;0.60;;;;;;;-2.67;70.00;100979.84;5096804;28;20187;-78
2021/12/25 06:07:36;;;;;;;0.93;0.70;;;;;;;-2.69;70.03;100978.91;5095805;28;20203;-78
2021/12/25 06:10:07;;;;;;;0.70;0.60;;;;;;;-2.72;70.23;100981.31;5096136;28;20219;-78
2021/12/25 06:12:36;;;;;;;0.87;0.50;;;;;;;-2.73;70.01;100987.22;5095238;28;20621;-78
2021/12/25 06:15:06;;;;;;;2.17;0.90;;;;;;;-2.80;70.90;100979.28;5095722;28;20211;-78
2021/12/25 06:17:32;;;;;;;0.60;0.43;;;;;;;-2.80;70.57;100976.72;5097708;28;20249;-78
2021/12/25 06:19:59;;;;;;;1.00;0.67;;;;;;;-2.80;70.71;100979.28;5096072;28;20219;-78
2021/12/25 06:22:25;;;;;;;0.60;0.57;;;;;;;-2.79;70.33;100980.16;5095087;28;20231;-78
2021/12/25 06:24:52;;;;;;;1.33;1.03;;;;;;;-2.81;71.01;100980.09;5095489;28;20260;-78
2021/12/25 06:27:19;;;;;;;1.57;0.97;;;;;;;-2.84;70.82;100982.50;5095434;28;20646;-78
2021/12/25 06:29:45;;;;;;;0.80;0.80;;;;;;;-2.84;71.14;100979.94;5095753;28;20211;-78
2021/12/25 06:32:13;;;;;;;0.73;0.70;;;;;;;-2.86;71.36;100976.44;5094435;28;20194;-78
2021/12/25 06:34:40;;;;;;;0.83;0.60;;;;;;;-2.86;70.52;100990.91;5095610;28;20252;-77
2021/12/25 06:37:07;;;;;;;1.13;0.60;;;;;;;-2.86;70.50;100996.03;5095501;28;20204;-78
2021/12/25 06:39:33;;;;;;;1.23;0.70;;;;;;;-2.91;70.77;100993.28;5095371;28;20638;-78
2021/12/25 06:42:00;;;;;;;1.50;0.60;;;;;;;-2.91;70.16;101007.72;5094999;28;20627;-77
2021/12/25 06:44:27;;;;;;;0.83;0.53;;;;;;;-2.94;70.73;101005.03;5094969;28;20633;-78
2021/12/25 06:46:54;;;;;;;1.57;0.80;;;;;;;-2.95;70.90;100999.06;5095241;28;20231;-77
2021/12/25 06:49:22;;;;;;;0.87;0.40;;;;;;;-2.97;70.53;101003.22;5095074;28;20204;-78
2021/12/25 06:51:49;;;;;;;0.57;0.50;;;;;;;-2.99;70.73;101009.94;5095095;28;20203;-78
2021/12/25 06:54:16;;;;;;;1.97;0.80;;;;;;;-3.00;70.60;101003.94;5095100;28;20228;-78
2021/12/25 06:56:43;;;;;;;0.70;0.60;;;;;;;-3.02;70.85;101004.69;5094897;28;20248;-77
2021/12/25 06:59:10;;;;;;;0.73;0.50;;;;;;;-3.04;71.30;100996.94;5095232;28;20199;-78
2021/12/25 07:01:37;;;;;;;1.20;0.60;;;;;;;-3.03;70.26;101014.03;5091004;28;20827;-78
2021/12/25 07:04:04;;;;;;;2.47;0.93;;;;;;;-3.05;69.86;101030.97;5094996;28;20251;-78
2021/12/25 07:06:32;;;;;;;1.13;0.93;;;;;;;-3.06;70.30;101031.75;5095119;28;20203;-78
2021/12/25 07:08:58;;;;;;;1.60;1.00;;;;;;;-3.07;70.11;101044.44;5095233;28;20252;-78
2021/12/25 07:11:24;;;;;;;1.63;1.03;;;;;;;-3.11;70.73;101035.78;5095057;28;20232;-78
2021/12/25 07:13:51;;;;;;;3.37;0.80;;;;;;;-3.13;70.87;101026.28;5094431;28;20635;-78
2021/12/25 07:16:18;;;;;;;1.50;0.97;;;;;;;-3.16;71.26;101031.28;5094841;28;20267;-78
2021/12/25 07:18:45;;;;;;;4.70;0.80;;;;;;;-3.20;70.96;101026.00;5094617;28;20202;-78
2021/12/25 07:21:12;;;;;;;1.17;1.00;;;;;;;-3.25;70.82;101022.41;5094856;28;20638;-78
2021/12/25 07:23:40;;;;;;;4.73;1.07;;;;;;;-3.26;70.93;101023.19;5094066;28;20230;-78
2021/12/25 07:26:06;;;;;;;2.30;0.87;;;;;;;-3.23;71.12;101027.53;5094767;28;20234;-78
2021/12/25 07:28:34;;;;;;;1.50;0.87;;;;;;;-3.22;71.15;101026.75;5094533;28;20207;-78
2021/12/25 07:31:01;;;;;;;0.83;0.70;;;;;;;-3.21;71.09;101023.38;5095033;28;20204;-78
2021/12/25 07:33:28;;;;;;;1.20;0.70;;;;;;;-3.22;71.39;101025.06;5095946;28;20280;-79
2021/12/25 07:35:55;;;;;;;1.30;1.07;;;;;;;-3.24;71.15;101020.69;5096218;28;20208;-79
2021/12/25 07:38:22;;;;;;;2.20;0.97;;;;;;;-3.29;71.92;101020.50;5095865;28;20665;-79
2021/12/25 07:40:50;;;;;;;1.33;1.10;;;;;;;-3.24;71.09;101031.78;5095835;28;20262;-78
2021/12/25 07:43:17;;;;;;;2.67;1.33;;;;;;;-3.31;71.59;101034.88;5095545;28;20234;-79
2021/12/25 07:45:46;;;;;;;2.23;1.27;;;;;;;-3.27;71.20;101030.75;5095136;28;20266;-79
2021/12/25 07:48:12;;;;;;;1.30;1.00;;;;;;;-3.32;71.09;101035.66;5095304;28;20218;-79
2021/12/25 07:50:40;;;;;;;2.40;1.20;;;;;;;-3.29;70.63;101057.91;5094854;28;20211;-79
2021/12/25 07:53:07;;;;;;;1.23;0.90;;;;;;;-3.28;70.94;101059.66;5094385;28;20266;-78
2021/12/25 07:55:34;;;;;;;2.23;1.00;;;;;;;-3.26;70.55;101056.38;5099700;28;20205;-78
2021/12/25 07:58:01;;;;;;;2.17;0.93;;;;;;;-3.33;70.84;101064.56;5103358;28;20255;-79
2021/12/25 08:00:29;;;;;;;2.03;1.07;;;;;;;-3.28;70.51;101065.63;5100123;28;20205;-79
2021/12/25 08:02:56;;;;;;;2.77;1.00;;;;;;;-3.28;70.42;101072.41;5104401;28;20610;-79
2021/12/25 08:05:22;;;;;;;7.83;1.10;;;;;;;-3.29;70.14;101084.31;5104457;28;20200;-79
2021/12/25 08:07:49;;;;;;;2.03;1.80;;;;;;;-3.29;71.05;101070.66;5105463;28;20256;-79
2021/12/25 08:10:18;;;;;;;1.43;0.70;;;;;;;-3.34;70.60;101082.34;5114663;28;20262;-78
2021/12/25 08:12:47;;;;;;;0.80;0.73;;;;;;;-3.35;71.24;101061.06;5114780;28;20708;-78
2021/12/25 08:15:17;;;;;;;2.60;1.10;;;;;;;-3.30;71.01;101074.91;5114660;28;20205;-78
2021/12/25 08:17:44;;;;;;;2.13;1.03;;;;;;;-3.28;70.41;101092.84;5114706;28;20236;-80
2021/12/25 08:20:12;;;;;;;4.40;4.00;;;;;;;-3.28;70.87;101080.09;5115557;28;20252;-79
2021/12/25 08:22:39;;;;;;;2.93;2.60;;;;;;;-3.28;71.15;101092.84;5114780;28;20277;-79
2021/12/25 08:25:06;;;;;;;2.37;1.73;;;;;;;-3.31;70.87;101082.47;5115894;28;20656;-79
2021/12/25 08:27:33;;;;;;;2.77;2.00;;;;;;;-3.33;70.52;101086.63;5101912;28;20265;-80
2021/12/25 08:29:59;;;;;;;4.73;2.13;;;;;;;-3.33;71.10;101078.97;5091177;28;20216;-79
2021/12/25 08:32:27;;;;;;;4.83;2.07;;;;;;;-3.33;70.12;101096.84;5094257;28;20198;-78
2021/12/25 08:34:54;;;;;;;2.57;1.73;;;;;;;-3.33;71.01;101094.28;5096838;28;20260;-78
2021/12/25 08:37:22;;;;;;;4.37;1.70;;;;;;;-3.33;69.91;101099.41;5098388;28;20211;-78
2021/12/25 08:39:49;;;;;;;4.40;1.57;;;;;;;-3.36;69.64;101109.47;5098306;28;20246;-78
2021/12/25 08:42:16;;;;;;;3.53;2.00;;;;;;;-3.35;70.74;101109.56;5097993;28;20204;-78
2021/12/25 08:44:54;;;;;;;4.10;2.00;;;;;;;-3.30;71.16;101097.88;5103314;28;20849;-77
2021/12/25 08:47:21;;;;;;;3.20;1.97;;;;;;;-3.27;70.29;101095.47;5110082;28;20206;-77
2021/12/25 08:49:49;;;;;;;3.73;1.70;;;;;;;-3.27;70.04;101107.34;5116442;28;20677;-78
2021/12/25 08:52:18;;;;;;;3.63;1.40;;;;;;;-3.22;70.18;101114.41;5117833;28;20668;-78
2021/12/25 08:54:48;;;;;;;6.93;1.27;;;;;;;-3.20;69.97;101117.06;5118405;28;20210;-78
2021/12/25 08:57:15;;;;;;;1.30;1.03;;;;;;;-3.19;69.22;101139.25;5118532;28;20343;-78
2021/12/25 08:59:42;;;;;;;2.37;1.00;;;;;;;-3.23;69.34;101148.44;5111296;28;20245;-77
2021/12/25 09:02:12;;;;;;;2.57;0.97;;;;;;;-3.28;69.68;101149.00;5096680;28;20195;-78
2021/12/25 09:04:40;;;;;;;2.20;0.77;;;;;;;-3.21;69.62;101162.13;5097416;28;20240;-78
2021/12/25 09:07:09;;;;;;;1.10;0.60;;;;;;;-3.16;67.67;101184.47;5096586;28;20207;-78
2021/12/25 09:09:36;;;;;;;0.80;0.80;;;;;;;-3.15;68.26;101201.50;5096456;28;20272;-77
2021/12/25 09:12:02;;;;;;;0.57;0.57;;;;;;;-3.11;71.29;101140.47;5096328;28;20202;-78
2021/12/25 09:14:29;;;;;;;0.70;0.60;;;;;;;-3.12;69.94;101143.81;5095938;28;20569;-77
2021/12/25 09:16:55;;;;;;;0.87;0.50;;;;;;;-3.14;68.15;101180.31;5096305;28;20575;-77
2021/12/25 09:19:22;;;;;;;1.27;0.33;;;;;;;-3.11;67.79;101189.00;5096935;28;20211;-77
2021/12/25 09:21:49;;;;;;;0.50;0.40;;;;;;;-3.07;68.54;101203.66;5092283;28;20215;-77
2021/12/25 09:24:17;;;;;;;0.90;0.40;;;;;;;-3.06;68.66;101184.09;5068900;28;20236;-77
2021/12/25 09:26:44;;;;;;;0.83;0.50;;;;;;;-3.07;67.20;101229.19;5074306;28;20636;-78
2021/12/25 09:29:10;;;;;;;1.10;0.50;;;;;;;-3.07;67.50;101244.53;5072602;28;20201;-77
2021/12/25 09:31:37;;;;;;;2.73;1.80;;;;;;;-3.00;70.65;101192.91;5068601;28;20207;-78
2021/12/25 09:34:03;;;;;;;1.13;0.70;;;;;;;-2.96;69.73;101170.09;5071633;28;20226;-77
2021/12/25 09:36:31;;;;;;;0.50;0.50;;;;;;;-2.91;69.07;101176.31;5075372;28;20211;-78
2021/12/25 09:38:58;;;;;;;2.20;0.50;;;;;;;-2.97;67.70;101210.09;5072797;28;20238;-77
2021/12/25 09:41:25;;;;;;;1.03;0.40;;;;;;;-3.00;66.26;101264.44;5075312;28;20226;-77
2021/12/25 09:43:52;;;;;;;1.20;0.40;;;;;;;-3.01;67.06;101247.38;5067194;28;21173;-76
2021/12/25 09:46:20;;;;;;;2.30;1.10;;;;;;;-2.98;67.22;101245.78;5078077;28;20206;-77
2021/12/25 09:48:47;;;;;;;2.20;0.90;;;;;;;-3.01;67.25;101247.38;5066795;28;20211;-76
2021/12/25 09:51:14;;;;;;;3.23;1.40;;;;;;;-2.99;67.25;101250.00;5073526;28;20253;-79
2021/12/25 09:53:41;;;;;;;2.03;1.25;;;;;;;-2.91;66.70;101242.72;5068969;28;20445;-78
2021/12/25 09:56:08;;;;;;;6.57;0.60;;;;;;;-2.93;65.80;101263.06;5078277;28;20208;-76
2021/12/25 09:58:35;;;;;;;2.90;0.67;;;;;;;-2.96;66.21;101278.25;5077140;28;20211;-76
2021/12/25 10:01:03;;;;;;;0.83;0.60;;;;;;;-2.98;66.41;101282.41;5070879;28;20203;-76
2021/12/25 10:03:43;;;;;;;1.37;0.57;;;;;;;-2.98;66.14;101279.84;5068695;28;20311;-76
2021/12/25 10:06:09;;;;;;;2.40;1.33;;;;;;;-3.00;66.44;101264.44;5067753;28;20200;-76
2021/12/25 10:08:39;;;;;;;0.50;0.50;;;;;;;-3.00;66.17;101274.66;5070880;28;20231;-77
2021/12/25 10:11:06;;;;;;;0.40;0.40;;;;;;;-3.00;65.62;101273.78;5067558;28;20212;-77
2021/12/25 10:13:35;;;;;;;1.97;0.70;;;;;;;-3.06;66.36;101276.91;5066705;28;20231;-77
2021/12/25 10:16:22;;;;;;;2.60;0.73;;;;;;;-3.00;68.03;101240.56;5073142;28;20315;-76
2021/12/25 10:18:49;;;;;;;0.90;0.60;;;;;;;-3.00;66.89;101251.66;5072043;28;20211;-77
2021/12/25 10:21:18;;;;;;;1.83;0.70;;;;;;;-3.03;65.88;101278.75;5072062;28;20676;-76
2021/12/25 10:23:45;;;;;;;1.07;0.70;;;;;;;-3.04;66.18;101267.63;5069978;28;20231;-76
2021/12/25 10:26:22;;;;;;;1.77;0.70;;;;;;;-3.05;66.22;101280.34;5070639;28;20212;-76
2021/12/25 10:28:48;;;;;;;1.00;0.90;;;;;;;-3.06;67.03;101264.13;5069632;28;20344;-77
2021/12/25 10:31:16;;;;;;;0.80;0.80;;;;;;;-3.03;66.45;101271.09;5072479;28;20207;-76
2021/12/25 10:33:47;;;;;;;1.60;1.00;;;;;;;-3.02;66.34;101267.72;5069157;28;20278;-76
2021/12/25 10:36:24;;;;;;;4.60;1.47;;;;;;;-2.98;67.53;101233.00;5072073;28;20273;-76
2021/12/25 10:38:59;;;;;;;1.23;0.90;;;;;;;-3.00;66.25;101266.13;5066662;28;20225;-76
2021/12/25 10:41:26;;;;;;;2.30;1.10;;;;;;;-3.04;66.81;101252.31;5066648;28;20200;-77
2021/12/25 10:44:12;;;;;;;1.20;0.97;;;;;;;-3.09;66.95;101258.91;5067528;28;20227;-76
2021/12/25 10:46:50;;;;;;;3.63;1.30;;;;;;;-3.03;68.63;101243.00;5069351;28;20215;-76
2021/12/25 10:49:17;;;;;;;2.43;1.30;;;;;;;-3.03;68.56;101194.47;5067729;28;20261;-77
2021/12/25 10:51:44;;;;;;;3.10;1.23;;;;;;;-2.97;68.25;101202.44;5067419;28;20253;-77
2021/12/25 10:54:13;;;;;;;2.73;1.50;;;;;;;-2.89;67.06;101231.78;5071199;28;20359;-76
2021/12/25 10:56:42;;;;;;;1.53;1.27;;;;;;;-2.87;68.15;101227.59;5071105;28;20199;-76
2021/12/25 10:59:11;;;;;;;2.10;1.20;;;;;;;-2.87;68.49;101209.72;5070021;28;20243;-79
2021/12/25 11:01:39;;;;;;;1.70;1.03;;;;;;;-2.85;68.56;101191.94;5073516;28;20281;-76
2021/12/25 11:04:24;;;;;;;1.77;1.20;;;;;;;-2.86;68.03;101198.69;4369664;28;10000729;-79
2021/12/25 11:06:50;;;;;;;1.00;0.90;;;;;;;-2.90;67.60;101213.81;5072440;28;20677;-78
2021/12/25 11:09:17;;;;;;;1.60;1.33;;;;;;;-2.89;67.80;101210.47;5067412;28;20272;-79
2021/12/25 11:11:43;;;;;;;1.33;1.13;;;;;;;-2.92;67.37;101221.38;5069567;28;20257;-78
2021/12/25 11:14:14;;;;;;;5.63;1.40;;;;;;;-3.04;67.75;101220.81;5070826;28;20256;-79
2021/12/25 11:16:40;;;;;;;3.27;1.30;;;;;;;-3.01;68.59;101190.31;5066751;28;20239;-79
2021/12/25 11:19:12;;;;;;;1.93;1.23;;;;;;;-3.02;67.63;101217.50;5067734;28;20204;-79
2021/12/25 11:21:56;;;;;;;1.53;1.10;;;;;;;-3.10;67.26;101225.63;5067893;28;20296;-79
2021/12/25 11:24:25;;;;;;;2.27;0.97;;;;;;;-3.10;67.28;101220.50;5096454;28;20272;-79
2021/12/25 11:26:55;;;;;;;0.97;0.80;;;;;;;-3.06;66.88;101240.28;5103793;28;20191;-78
2021/12/25 11:29:24;;;;;;;3.30;1.00;;;;;;;-3.05;66.61;101247.16;5101111;28;20536;-79
2021/12/25 11:31:51;;;;;;;1.80;0.80;;;;;;;-3.06;67.16;101242.84;5101450;28;20203;-79
2021/12/25 11:34:20;;;;;;;1.50;0.90;;;;;;;-3.06;66.75;101243.69;5099200;28;20219;-79
2021/12/25 11:36:50;;;;;;;1.23;0.60;;;;;;;-3.10;65.84;101258.81;5102350;28;20250;-78
2021/12/25 11:39:19;;;;;;;0.40;0.40;;;;;;;-3.13;66.44;101264.66;5099010;28;20548;-79
2021/12/25 11:41:46;;;;;;;1.97;0.70;;;;;;;-3.07;66.38;101266.59;5101854;28;20202;-78
2021/12/25 11:44:31;;;;;;;1.07;0.90;;;;;;;-3.12;65.95;101257.84;5103491;28;20782;-79
2021/12/25 11:46:58;;;;;;;0.67;0.60;;;;;;;-3.10;65.86;101263.91;5099055;28;20202;-79
2021/12/25 11:49:25;;;;;;;2.03;0.60;;;;;;;-3.13;65.97;101271.41;5101988;28;20199;-79
2021/12/25 11:51:52;;;;;;;1.03;0.60;;;;;;;-3.19;66.02;101264.34;5103216;28;20194;-78
2021/12/25 11:55:01;;;;;;;1.80;0.60;;;;;;;-3.16;66.72;101259.38;5101849;28;20218;-79
2021/12/25 11:57:47;;;;;;;0.77;0.73;;;;;;;-3.16;66.64;101254.28;5101144;28;20199;-78
2021/12/25 12:00:14;;;;;;;1.23;0.90;;;;;;;-3.11;67.42;101239.16;5099738;28;20206;-78
2021/12/25 12:02:43;;;;;;;1.33;0.47;;;;;;;-3.05;67.19;101237.81;5101289;28;20231;-78
2021/12/25 12:05:24;;;;;;;0.97;0.57;;;;;;;-3.02;67.35;101230.28;5101575;28;20211;-79
2021/12/25 12:07:59;;;;;;;1.63;0.70;;;;;;;-2.94;66.59;101255.34;5102897;28;20213;-78
2021/12/25 12:10:48;;;;;;;1.50;0.60;;;;;;;-3.02;65.87;101266.03;5104431;28;20198;-79
2021/12/25 12:13:17;;;;;;;0.53;0.53;;;;;;;-3.00;66.05;101263.56;5107141;28;20219;-79
2021/12/25 12:15:45;;;;;;;1.67;0.70;;;;;;;-2.87;66.28;101259.94;5106221;28;20225;-79
2021/12/25 12:18:41;;;;;;;0.97;0.50;;;;;;;-2.67;65.56;101273.69;5105277;28;20213;-78